sensor_id;sensor_type;location;lat;lon;timestamp;P1;durP1;ratioP1;P2;durP2;ratioP2
44606;SDS011;30315;46.072;14.474;2023-03-08T00:02:00;28.33;;;19.58;;
44606;SDS011;30315;46.072;14.474;2023-03-08T00:04:27;26.10;;;17.92;;
44606;SDS011;30315;46.072;14.474;2023-03-08T00:06:54;28.10;;;18.88;;
44606;SDS011;30315;46.072;14.474;2023-03-08T00:09:21;28.38;;;17.88;;
44606;SDS011;30315;46.072;14.474;2023-03-08T00:11:48;30.23;;;18.38;;
44606;SDS011;30315;46.072;14.474;2023-03-08T00:14:15;32.72;;;19.05;;
44606;SDS011;30315;46.072;14.474;2023-03-08T00:16:43;26.45;;;18.55;;
44606;SDS011;30315;46.072;14.474;2023-03-08T00:19:09;27.20;;;17.73;;
44606;SDS011;30315;46.072;14.474;2023-03-08T00:21:36;25.83;;;18.30;;
44606;SDS011;30315;46.072;14.474;2023-03-08T00:24:03;27.88;;;17.70;;
44606;SDS011;30315;46.072;14.474;2023-03-08T00:26:30;23.20;;;17.13;;
44606;SDS011;30315;46.072;14.474;2023-03-08T00:28:57;31.67;;;21.02;;
44606;SDS011;30315;46.072;14.474;2023-03-08T00:31:26;28.38;;;18.83;;
44606;SDS011;30315;46.072;14.474;2023-03-08T00:33:53;29.33;;;20.55;;
44606;SDS011;30315;46.072;14.474;2023-03-08T00:36:20;27.80;;;19.80;;
44606;SDS011;30315;46.072;14.474;2023-03-08T00:38:47;35.15;;;21.98;;
44606;SDS011;30315;46.072;14.474;2023-03-08T00:41:16;31.48;;;20.27;;
44606;SDS011;30315;46.072;14.474;2023-03-08T00:43:44;29.48;;;20.90;;
44606;SDS011;30315;46.072;14.474;2023-03-08T00:46:11;30.30;;;20.98;;
44606;SDS011;30315;46.072;14.474;2023-03-08T00:48:39;30.30;;;21.30;;
44606;SDS011;30315;46.072;14.474;2023-03-08T00:51:07;29.27;;;20.58;;
44606;SDS011;30315;46.072;14.474;2023-03-08T00:53:37;35.90;;;22.63;;
44606;SDS011;30315;46.072;14.474;2023-03-08T00:56:04;33.53;;;23.58;;
44606;SDS011;30315;46.072;14.474;2023-03-08T00:58:31;31.42;;;22.05;;
44606;SDS011;30315;46.072;14.474;2023-03-08T01:00:58;33.35;;;21.52;;
44606;SDS011;30315;46.072;14.474;2023-03-08T01:03:27;27.10;;;19.55;;
44606;SDS011;30315;46.072;14.474;2023-03-08T01:05:54;28.88;;;18.48;;
44606;SDS011;30315;46.072;14.474;2023-03-08T01:08:23;22.70;;;16.38;;
44606;SDS011;30315;46.072;14.474;2023-03-08T01:10:55;24.00;;;16.60;;
44606;SDS011;30315;46.072;14.474;2023-03-08T01:13:31;25.05;;;16.50;;
44606;SDS011;30315;46.072;14.474;2023-03-08T01:16:00;19.02;;;14.63;;
44606;SDS011;30315;46.072;14.474;2023-03-08T01:18:28;21.17;;;15.23;;
44606;SDS011;30315;46.072;14.474;2023-03-08T01:20:59;19.92;;;13.80;;
44606;SDS011;30315;46.072;14.474;2023-03-08T01:23:28;16.42;;;12.23;;
44606;SDS011;30315;46.072;14.474;2023-03-08T01:25:56;20.70;;;12.65;;
44606;SDS011;30315;46.072;14.474;2023-03-08T01:28:27;15.20;;;11.30;;
44606;SDS011;30315;46.072;14.474;2023-03-08T01:30:59;14.40;;;11.10;;
44606;SDS011;30315;46.072;14.474;2023-03-08T01:33:27;11.60;;;9.93;;
44606;SDS011;30315;46.072;14.474;2023-03-08T01:35:54;10.35;;;8.95;;
44606;SDS011;30315;46.072;14.474;2023-03-08T01:38:21;10.30;;;8.60;;
44606;SDS011;30315;46.072;14.474;2023-03-08T01:40:53;10.10;;;7.82;;
44606;SDS011;30315;46.072;14.474;2023-03-08T01:43:22;9.38;;;7.68;;
44606;SDS011;30315;46.072;14.474;2023-03-08T01:48:39;8.85;;;7.93;;
44606;SDS011;30315;46.072;14.474;2023-03-08T01:51:50;8.65;;;6.75;;
44606;SDS011;30315;46.072;14.474;2023-03-08T01:56:54;13.23;;;7.47;;
44606;SDS011;30315;46.072;14.474;2023-03-08T01:59:26;11.43;;;8.43;;
44606;SDS011;30315;46.072;14.474;2023-03-08T02:01:53;14.13;;;7.47;;
44606;SDS011;30315;46.072;14.474;2023-03-08T02:04:21;10.05;;;7.28;;
44606;SDS011;30315;46.072;14.474;2023-03-08T02:06:47;9.82;;;7.20;;
44606;SDS011;30315;46.072;14.474;2023-03-08T02:09:20;9.40;;;6.82;;
44606;SDS011;30315;46.072;14.474;2023-03-08T02:11:47;9.32;;;7.22;;
44606;SDS011;30315;46.072;14.474;2023-03-08T02:14:15;13.15;;;7.50;;
44606;SDS011;30315;46.072;14.474;2023-03-08T02:19:45;14.02;;;7.68;;
44606;SDS011;30315;46.072;14.474;2023-03-08T02:22:19;11.40;;;7.20;;
44606;SDS011;30315;46.072;14.474;2023-03-08T02:24:46;15.93;;;7.95;;
44606;SDS011;30315;46.072;14.474;2023-03-08T02:27:15;16.00;;;7.90;;
44606;SDS011;30315;46.072;14.474;2023-03-08T02:29:45;10.00;;;7.88;;
44606;SDS011;30315;46.072;14.474;2023-03-08T02:32:12;12.27;;;8.20;;
44606;SDS011;30315;46.072;14.474;2023-03-08T02:34:39;12.75;;;8.02;;
44606;SDS011;30315;46.072;14.474;2023-03-08T02:37:06;12.38;;;7.30;;
44606;SDS011;30315;46.072;14.474;2023-03-08T02:39:33;13.68;;;8.00;;
44606;SDS011;30315;46.072;14.474;2023-03-08T02:42:00;11.85;;;7.30;;
44606;SDS011;30315;46.072;14.474;2023-03-08T02:44:27;10.68;;;7.15;;
44606;SDS011;30315;46.072;14.474;2023-03-08T02:46:54;9.85;;;7.78;;
44606;SDS011;30315;46.072;14.474;2023-03-08T02:49:21;11.60;;;7.70;;
44606;SDS011;30315;46.072;14.474;2023-03-08T02:51:48;11.35;;;7.93;;
44606;SDS011;30315;46.072;14.474;2023-03-08T02:54:15;11.98;;;8.40;;
44606;SDS011;30315;46.072;14.474;2023-03-08T02:56:43;12.80;;;8.45;;
44606;SDS011;30315;46.072;14.474;2023-03-08T02:59:12;12.90;;;8.20;;
44606;SDS011;30315;46.072;14.474;2023-03-08T03:04:08;11.70;;;8.00;;
44606;SDS011;30315;46.072;14.474;2023-03-08T03:06:35;13.52;;;7.75;;
44606;SDS011;30315;46.072;14.474;2023-03-08T03:09:06;12.02;;;7.55;;
44606;SDS011;30315;46.072;14.474;2023-03-08T03:11:34;10.68;;;8.10;;
44606;SDS011;30315;46.072;14.474;2023-03-08T03:14:02;11.10;;;7.45;;
44606;SDS011;30315;46.072;14.474;2023-03-08T03:16:35;11.95;;;7.95;;
44606;SDS011;30315;46.072;14.474;2023-03-08T03:19:02;12.80;;;7.70;;
44606;SDS011;30315;46.072;14.474;2023-03-08T03:21:29;11.88;;;8.05;;
44606;SDS011;30315;46.072;14.474;2023-03-08T03:23:58;15.00;;;9.55;;
44606;SDS011;30315;46.072;14.474;2023-03-08T03:26:32;11.60;;;8.60;;
44606;SDS011;30315;46.072;14.474;2023-03-08T03:29:00;15.90;;;10.10;;
44606;SDS011;30315;46.072;14.474;2023-03-08T03:31:31;16.63;;;10.45;;
44606;SDS011;30315;46.072;14.474;2023-03-08T03:33:59;14.00;;;11.38;;
44606;SDS011;30315;46.072;14.474;2023-03-08T03:36:27;17.88;;;12.20;;
44606;SDS011;30315;46.072;14.474;2023-03-08T03:38:55;21.67;;;11.88;;
44606;SDS011;30315;46.072;14.474;2023-03-08T03:41:22;17.77;;;11.68;;
44606;SDS011;30315;46.072;14.474;2023-03-08T03:44:03;14.90;;;10.88;;
44606;SDS011;30315;46.072;14.474;2023-03-08T03:46:32;14.65;;;11.75;;
44606;SDS011;30315;46.072;14.474;2023-03-08T03:48:59;16.38;;;11.65;;
44606;SDS011;30315;46.072;14.474;2023-03-08T03:51:32;14.48;;;10.68;;
44606;SDS011;30315;46.072;14.474;2023-03-08T03:54:08;16.75;;;11.57;;
44606;SDS011;30315;46.072;14.474;2023-03-08T03:56:38;15.70;;;12.45;;
44606;SDS011;30315;46.072;14.474;2023-03-08T03:59:06;20.13;;;11.73;;
44606;SDS011;30315;46.072;14.474;2023-03-08T04:01:33;17.60;;;11.68;;
44606;SDS011;30315;46.072;14.474;2023-03-08T04:04:09;17.27;;;11.85;;
44606;SDS011;30315;46.072;14.474;2023-03-08T04:06:40;15.85;;;11.68;;
44606;SDS011;30315;46.072;14.474;2023-03-08T04:09:11;14.20;;;10.85;;
44606;SDS011;30315;46.072;14.474;2023-03-08T04:11:43;13.23;;;10.93;;
44606;SDS011;30315;46.072;14.474;2023-03-08T04:14:14;13.10;;;10.27;;
44606;SDS011;30315;46.072;14.474;2023-03-08T04:16:43;14.02;;;10.35;;
44606;SDS011;30315;46.072;14.474;2023-03-08T04:19:17;11.23;;;9.07;;
44606;SDS011;30315;46.072;14.474;2023-03-08T04:21:49;9.38;;;7.13;;
44606;SDS011;30315;46.072;14.474;2023-03-08T04:24:19;14.45;;;7.65;;
44606;SDS011;30315;46.072;14.474;2023-03-08T04:26:50;13.50;;;8.25;;
44606;SDS011;30315;46.072;14.474;2023-03-08T04:29:18;13.50;;;6.68;;
44606;SDS011;30315;46.072;14.474;2023-03-08T04:31:45;9.50;;;6.90;;
44606;SDS011;30315;46.072;14.474;2023-03-08T04:34:16;14.57;;;7.22;;
44606;SDS011;30315;46.072;14.474;2023-03-08T04:36:46;9.45;;;6.63;;
44606;SDS011;30315;46.072;14.474;2023-03-08T04:39:13;8.05;;;7.25;;
44606;SDS011;30315;46.072;14.474;2023-03-08T04:41:41;12.05;;;7.43;;
44606;SDS011;30315;46.072;14.474;2023-03-08T04:44:13;10.32;;;6.85;;
44606;SDS011;30315;46.072;14.474;2023-03-08T04:46:45;8.27;;;6.38;;
44606;SDS011;30315;46.072;14.474;2023-03-08T04:49:18;11.85;;;7.07;;
44606;SDS011;30315;46.072;14.474;2023-03-08T04:51:51;7.32;;;6.63;;
44606;SDS011;30315;46.072;14.474;2023-03-08T04:54:19;9.55;;;6.78;;
44606;SDS011;30315;46.072;14.474;2023-03-08T04:56:52;8.70;;;7.18;;
44606;SDS011;30315;46.072;14.474;2023-03-08T04:59:22;8.82;;;7.90;;
44606;SDS011;30315;46.072;14.474;2023-03-08T05:01:51;13.83;;;8.47;;
44606;SDS011;30315;46.072;14.474;2023-03-08T05:04:19;11.73;;;8.13;;
44606;SDS011;30315;46.072;14.474;2023-03-08T05:06:46;12.93;;;8.15;;
44606;SDS011;30315;46.072;14.474;2023-03-08T05:09:19;13.07;;;8.50;;
44606;SDS011;30315;46.072;14.474;2023-03-08T05:11:49;13.30;;;9.43;;
44606;SDS011;30315;46.072;14.474;2023-03-08T05:14:16;11.00;;;9.30;;
44606;SDS011;30315;46.072;14.474;2023-03-08T05:16:43;9.85;;;8.30;;
44606;SDS011;30315;46.072;14.474;2023-03-08T05:19:10;13.93;;;8.68;;
44606;SDS011;30315;46.072;14.474;2023-03-08T05:21:44;13.38;;;8.50;;
44606;SDS011;30315;46.072;14.474;2023-03-08T05:24:12;13.18;;;8.93;;
44606;SDS011;30315;46.072;14.474;2023-03-08T05:26:40;11.30;;;8.52;;
44606;SDS011;30315;46.072;14.474;2023-03-08T05:29:09;10.13;;;8.48;;
44606;SDS011;30315;46.072;14.474;2023-03-08T05:31:37;11.07;;;8.18;;
44606;SDS011;30315;46.072;14.474;2023-03-08T05:34:08;11.55;;;8.25;;
44606;SDS011;30315;46.072;14.474;2023-03-08T05:36:38;15.38;;;8.85;;
44606;SDS011;30315;46.072;14.474;2023-03-08T05:39:07;13.00;;;8.70;;
44606;SDS011;30315;46.072;14.474;2023-03-08T05:41:42;13.80;;;8.98;;
44606;SDS011;30315;46.072;14.474;2023-03-08T05:44:12;10.80;;;8.07;;
44606;SDS011;30315;46.072;14.474;2023-03-08T05:46:39;14.23;;;8.38;;
44606;SDS011;30315;46.072;14.474;2023-03-08T05:49:08;10.73;;;8.23;;
44606;SDS011;30315;46.072;14.474;2023-03-08T05:51:36;11.18;;;8.00;;
44606;SDS011;30315;46.072;14.474;2023-03-08T05:54:04;12.88;;;8.48;;
44606;SDS011;30315;46.072;14.474;2023-03-08T05:56:33;13.90;;;8.32;;
44606;SDS011;30315;46.072;14.474;2023-03-08T05:59:08;9.23;;;7.75;;
44606;SDS011;30315;46.072;14.474;2023-03-08T06:01:35;12.30;;;7.95;;
44606;SDS011;30315;46.072;14.474;2023-03-08T06:04:12;11.30;;;7.82;;
44606;SDS011;30315;46.072;14.474;2023-03-08T06:06:42;10.80;;;7.90;;
44606;SDS011;30315;46.072;14.474;2023-03-08T06:09:08;9.18;;;8.27;;
44606;SDS011;30315;46.072;14.474;2023-03-08T06:11:38;13.05;;;8.40;;
44606;SDS011;30315;46.072;14.474;2023-03-08T06:14:06;13.73;;;8.43;;
44606;SDS011;30315;46.072;14.474;2023-03-08T06:16:33;10.48;;;8.77;;
44606;SDS011;30315;46.072;14.474;2023-03-08T06:19:01;11.02;;;8.95;;
44606;SDS011;30315;46.072;14.474;2023-03-08T06:21:29;11.85;;;8.38;;
44606;SDS011;30315;46.072;14.474;2023-03-08T06:24:00;9.70;;;7.88;;
44606;SDS011;30315;46.072;14.474;2023-03-08T06:26:27;7.50;;;6.80;;
44606;SDS011;30315;46.072;14.474;2023-03-08T06:28:54;7.95;;;6.45;;
44606;SDS011;30315;46.072;14.474;2023-03-08T06:31:25;9.02;;;6.95;;
44606;SDS011;30315;46.072;14.474;2023-03-08T06:33:52;9.27;;;6.70;;
44606;SDS011;30315;46.072;14.474;2023-03-08T06:36:23;6.97;;;6.38;;
44606;SDS011;30315;46.072;14.474;2023-03-08T06:38:50;12.63;;;7.97;;
44606;SDS011;30315;46.072;14.474;2023-03-08T06:41:18;9.32;;;7.90;;
44606;SDS011;30315;46.072;14.474;2023-03-08T06:43:50;7.90;;;7.10;;
44606;SDS011;30315;46.072;14.474;2023-03-08T06:46:17;7.88;;;7.07;;
44606;SDS011;30315;46.072;14.474;2023-03-08T06:48:45;9.93;;;7.28;;
44606;SDS011;30315;46.072;14.474;2023-03-08T06:51:15;7.80;;;7.05;;
44606;SDS011;30315;46.072;14.474;2023-03-08T06:53:43;8.48;;;7.25;;
44606;SDS011;30315;46.072;14.474;2023-03-08T06:56:14;9.23;;;7.68;;
44606;SDS011;30315;46.072;14.474;2023-03-08T06:58:41;9.02;;;6.88;;
44606;SDS011;30315;46.072;14.474;2023-03-08T07:01:08;9.65;;;7.25;;
44606;SDS011;30315;46.072;14.474;2023-03-08T07:03:36;8.15;;;7.35;;
44606;SDS011;30315;46.072;14.474;2023-03-08T07:06:04;8.02;;;7.20;;
44606;SDS011;30315;46.072;14.474;2023-03-08T07:08:33;7.45;;;6.57;;
44606;SDS011;30315;46.072;14.474;2023-03-08T07:11:01;7.28;;;6.55;;
44606;SDS011;30315;46.072;14.474;2023-03-08T07:13:29;7.65;;;6.00;;
44606;SDS011;30315;46.072;14.474;2023-03-08T07:15:56;6.63;;;5.95;;
44606;SDS011;30315;46.072;14.474;2023-03-08T07:18:23;9.10;;;6.32;;
44606;SDS011;30315;46.072;14.474;2023-03-08T07:20:54;10.68;;;6.55;;
44606;SDS011;30315;46.072;14.474;2023-03-08T07:23:22;7.10;;;5.80;;
44606;SDS011;30315;46.072;14.474;2023-03-08T07:25:49;14.68;;;7.25;;
44606;SDS011;30315;46.072;14.474;2023-03-08T07:28:17;7.68;;;6.72;;
44606;SDS011;30315;46.072;14.474;2023-03-08T07:30:45;6.78;;;6.15;;
44606;SDS011;30315;46.072;14.474;2023-03-08T07:35:41;5.70;;;5.20;;
44606;SDS011;30315;46.072;14.474;2023-03-08T07:38:10;5.55;;;4.72;;
44606;SDS011;30315;46.072;14.474;2023-03-08T07:40:37;7.70;;;6.10;;
44606;SDS011;30315;46.072;14.474;2023-03-08T07:43:04;6.78;;;5.63;;
44606;SDS011;30315;46.072;14.474;2023-03-08T07:45:52;7.07;;;5.20;;
44606;SDS011;30315;46.072;14.474;2023-03-08T07:48:19;5.28;;;4.78;;
44606;SDS011;30315;46.072;14.474;2023-03-08T07:50:45;5.03;;;4.53;;
44606;SDS011;30315;46.072;14.474;2023-03-08T07:53:12;4.90;;;4.40;;
44606;SDS011;30315;46.072;14.474;2023-03-08T07:55:40;6.53;;;4.20;;
44606;SDS011;30315;46.072;14.474;2023-03-08T07:58:07;4.72;;;4.43;;
44606;SDS011;30315;46.072;14.474;2023-03-08T08:00:34;4.80;;;4.07;;
44606;SDS011;30315;46.072;14.474;2023-03-08T08:03:01;7.03;;;4.65;;
44606;SDS011;30315;46.072;14.474;2023-03-08T08:05:28;8.43;;;4.60;;
44606;SDS011;30315;46.072;14.474;2023-03-08T08:07:55;5.70;;;4.80;;
44606;SDS011;30315;46.072;14.474;2023-03-08T08:10:22;5.68;;;5.05;;
44606;SDS011;30315;46.072;14.474;2023-03-08T08:12:49;10.32;;;4.10;;
44606;SDS011;30315;46.072;14.474;2023-03-08T08:15:16;6.50;;;4.50;;
44606;SDS011;30315;46.072;14.474;2023-03-08T08:17:43;4.60;;;4.10;;
44606;SDS011;30315;46.072;14.474;2023-03-08T08:20:10;5.20;;;4.50;;
44606;SDS011;30315;46.072;14.474;2023-03-08T08:22:37;5.07;;;4.55;;
44606;SDS011;30315;46.072;14.474;2023-03-08T08:25:04;5.20;;;4.50;;
44606;SDS011;30315;46.072;14.474;2023-03-08T08:27:32;4.35;;;4.05;;
44606;SDS011;30315;46.072;14.474;2023-03-08T08:30:00;8.02;;;4.55;;
44606;SDS011;30315;46.072;14.474;2023-03-08T08:32:28;5.57;;;3.80;;
44606;SDS011;30315;46.072;14.474;2023-03-08T08:34:55;6.35;;;4.18;;
44606;SDS011;30315;46.072;14.474;2023-03-08T08:37:25;4.47;;;4.07;;
44606;SDS011;30315;46.072;14.474;2023-03-08T08:39:52;4.90;;;3.30;;
44606;SDS011;30315;46.072;14.474;2023-03-08T08:42:19;6.72;;;3.60;;
44606;SDS011;30315;46.072;14.474;2023-03-08T08:44:46;4.65;;;4.25;;
44606;SDS011;30315;46.072;14.474;2023-03-08T08:47:13;4.07;;;3.67;;
44606;SDS011;30315;46.072;14.474;2023-03-08T08:49:40;3.97;;;2.78;;
44606;SDS011;30315;46.072;14.474;2023-03-08T08:52:07;3.85;;;3.25;;
44606;SDS011;30315;46.072;14.474;2023-03-08T08:54:34;5.10;;;3.30;;
44606;SDS011;30315;46.072;14.474;2023-03-08T08:57:05;4.13;;;3.72;;
44606;SDS011;30315;46.072;14.474;2023-03-08T08:59:32;4.05;;;3.63;;
44606;SDS011;30315;46.072;14.474;2023-03-08T09:01:59;5.50;;;3.50;;
44606;SDS011;30315;46.072;14.474;2023-03-08T09:04:26;3.97;;;3.30;;
44606;SDS011;30315;46.072;14.474;2023-03-08T09:06:54;6.18;;;3.65;;
44606;SDS011;30315;46.072;14.474;2023-03-08T09:09:21;3.22;;;2.95;;
44606;SDS011;30315;46.072;14.474;2023-03-08T09:11:48;3.92;;;3.45;;
44606;SDS011;30315;46.072;14.474;2023-03-08T09:14:21;3.35;;;3.10;;
44606;SDS011;30315;46.072;14.474;2023-03-08T09:16:48;4.97;;;3.20;;
44606;SDS011;30315;46.072;14.474;2023-03-08T09:19:15;6.72;;;3.38;;
44606;SDS011;30315;46.072;14.474;2023-03-08T09:21:42;3.00;;;2.80;;
44606;SDS011;30315;46.072;14.474;2023-03-08T09:24:09;4.93;;;3.38;;
44606;SDS011;30315;46.072;14.474;2023-03-08T09:26:37;4.63;;;3.80;;
44606;SDS011;30315;46.072;14.474;2023-03-08T09:29:03;6.07;;;3.58;;
44606;SDS011;30315;46.072;14.474;2023-03-08T09:31:33;4.30;;;3.40;;
44606;SDS011;30315;46.072;14.474;2023-03-08T09:34:04;3.70;;;3.20;;
44606;SDS011;30315;46.072;14.474;2023-03-08T09:36:35;2.92;;;2.72;;
44606;SDS011;30315;46.072;14.474;2023-03-08T09:39:05;2.70;;;2.45;;
44606;SDS011;30315;46.072;14.474;2023-03-08T09:41:44;2.97;;;2.78;;
44606;SDS011;30315;46.072;14.474;2023-03-08T09:46:58;6.20;;;3.55;;
44606;SDS011;30315;46.072;14.474;2023-03-08T09:49:31;2.65;;;2.42;;
44606;SDS011;30315;46.072;14.474;2023-03-08T09:54:40;4.10;;;3.28;;
44606;SDS011;30315;46.072;14.474;2023-03-08T09:57:18;5.97;;;2.75;;
44606;SDS011;30315;46.072;14.474;2023-03-08T09:59:53;2.70;;;2.50;;
44606;SDS011;30315;46.072;14.474;2023-03-08T10:11:00;2.92;;;2.72;;
44606;SDS011;30315;46.072;14.474;2023-03-08T10:13:33;3.35;;;2.88;;
44606;SDS011;30315;46.072;14.474;2023-03-08T10:21:27;3.30;;;2.88;;
44606;SDS011;30315;46.072;14.474;2023-03-08T10:24:19;7.43;;;3.08;;
44606;SDS011;30315;46.072;14.474;2023-03-08T10:26:59;3.10;;;2.55;;
44606;SDS011;30315;46.072;14.474;2023-03-08T10:29:32;3.80;;;2.65;;
44606;SDS011;30315;46.072;14.474;2023-03-08T10:31:59;6.43;;;2.55;;
44606;SDS011;30315;46.072;14.474;2023-03-08T10:34:28;6.13;;;2.58;;
44606;SDS011;30315;46.072;14.474;2023-03-08T10:37:01;2.90;;;2.58;;
44606;SDS011;30315;46.072;14.474;2023-03-08T10:39:30;3.10;;;2.25;;
44606;SDS011;30315;46.072;14.474;2023-03-08T10:41:58;3.78;;;2.35;;
44606;SDS011;30315;46.072;14.474;2023-03-08T10:44:34;3.60;;;2.63;;
44606;SDS011;30315;46.072;14.474;2023-03-08T10:47:18;2.40;;;2.20;;
44606;SDS011;30315;46.072;14.474;2023-03-08T10:52:44;4.22;;;2.30;;
44606;SDS011;30315;46.072;14.474;2023-03-08T10:55:13;3.03;;;2.50;;
44606;SDS011;30315;46.072;14.474;2023-03-08T10:57:47;5.65;;;2.58;;
44606;SDS011;30315;46.072;14.474;2023-03-08T11:00:35;4.45;;;2.72;;
44606;SDS011;30315;46.072;14.474;2023-03-08T11:08:31;2.45;;;2.28;;
44606;SDS011;30315;46.072;14.474;2023-03-08T11:13:36;2.75;;;2.20;;
44606;SDS011;30315;46.072;14.474;2023-03-08T11:16:06;4.50;;;2.30;;
44606;SDS011;30315;46.072;14.474;2023-03-08T11:21:28;8.23;;;2.38;;
44606;SDS011;30315;46.072;14.474;2023-03-08T11:33:02;5.80;;;2.30;;
44606;SDS011;30315;46.072;14.474;2023-03-08T11:57:34;3.45;;;2.40;;
44606;SDS011;30315;46.072;14.474;2023-03-08T12:00:17;3.05;;;1.92;;
44606;SDS011;30315;46.072;14.474;2023-03-08T12:02:49;4.05;;;1.92;;
44606;SDS011;30315;46.072;14.474;2023-03-08T12:08:08;3.83;;;2.40;;
44606;SDS011;30315;46.072;14.474;2023-03-08T12:10:41;2.83;;;2.30;;
44606;SDS011;30315;46.072;14.474;2023-03-08T12:13:24;2.05;;;1.77;;
44606;SDS011;30315;46.072;14.474;2023-03-08T12:15:59;5.50;;;2.50;;
44606;SDS011;30315;46.072;14.474;2023-03-08T12:18:33;2.95;;;2.08;;
44606;SDS011;30315;46.072;14.474;2023-03-08T12:21:20;5.13;;;2.55;;
44606;SDS011;30315;46.072;14.474;2023-03-08T12:23:59;5.35;;;2.47;;
44606;SDS011;30315;46.072;14.474;2023-03-08T12:26:42;3.50;;;2.33;;
44606;SDS011;30315;46.072;14.474;2023-03-08T12:29:19;2.53;;;2.33;;
44606;SDS011;30315;46.072;14.474;2023-03-08T12:31:51;3.63;;;2.08;;
44606;SDS011;30315;46.072;14.474;2023-03-08T12:34:26;4.10;;;2.65;;
44606;SDS011;30315;46.072;14.474;2023-03-08T12:37:17;1.88;;;1.60;;
44606;SDS011;30315;46.072;14.474;2023-03-08T12:39:56;5.13;;;2.35;;
44606;SDS011;30315;46.072;14.474;2023-03-08T12:43:03;2.72;;;2.08;;
44606;SDS011;30315;46.072;14.474;2023-03-08T12:45:33;2.67;;;2.00;;
44606;SDS011;30315;46.072;14.474;2023-03-08T12:48:07;2.55;;;1.98;;
44606;SDS011;30315;46.072;14.474;2023-03-08T12:50:42;3.08;;;2.45;;
44606;SDS011;30315;46.072;14.474;2023-03-08T12:53:23;2.70;;;2.45;;
44606;SDS011;30315;46.072;14.474;2023-03-08T12:58:37;4.50;;;2.20;;
44606;SDS011;30315;46.072;14.474;2023-03-08T13:01:23;3.67;;;2.30;;
44606;SDS011;30315;46.072;14.474;2023-03-08T13:04:02;2.73;;;2.47;;
44606;SDS011;30315;46.072;14.474;2023-03-08T13:07:15;3.72;;;2.20;;
44606;SDS011;30315;46.072;14.474;2023-03-08T13:14:57;5.85;;;2.00;;
44606;SDS011;30315;46.072;14.474;2023-03-08T13:17:32;1.98;;;1.55;;
44606;SDS011;30315;46.072;14.474;2023-03-08T13:20:11;4.93;;;2.38;;
44606;SDS011;30315;46.072;14.474;2023-03-08T13:22:51;2.13;;;1.90;;
44606;SDS011;30315;46.072;14.474;2023-03-08T13:25:36;4.07;;;1.95;;
44606;SDS011;30315;46.072;14.474;2023-03-08T13:28:11;3.97;;;2.20;;
44606;SDS011;30315;46.072;14.474;2023-03-08T13:30:48;3.22;;;1.90;;
44606;SDS011;30315;46.072;14.474;2023-03-08T13:33:20;2.50;;;2.30;;
44606;SDS011;30315;46.072;14.474;2023-03-08T13:36:00;3.83;;;1.67;;
44606;SDS011;30315;46.072;14.474;2023-03-08T13:38:33;3.72;;;1.85;;
44606;SDS011;30315;46.072;14.474;2023-03-08T13:41:02;1.85;;;1.75;;
44606;SDS011;30315;46.072;14.474;2023-03-08T13:43:30;1.80;;;1.70;;
44606;SDS011;30315;46.072;14.474;2023-03-08T13:45:59;2.60;;;1.70;;
44606;SDS011;30315;46.072;14.474;2023-03-08T13:48:30;3.72;;;1.80;;
44606;SDS011;30315;46.072;14.474;2023-03-08T13:51:00;3.10;;;1.73;;
44606;SDS011;30315;46.072;14.474;2023-03-08T13:53:29;1.98;;;1.77;;
44606;SDS011;30315;46.072;14.474;2023-03-08T13:55:58;1.70;;;1.40;;
44606;SDS011;30315;46.072;14.474;2023-03-08T14:00:58;3.13;;;1.83;;
44606;SDS011;30315;46.072;14.474;2023-03-08T14:03:28;5.80;;;1.85;;
44606;SDS011;30315;46.072;14.474;2023-03-08T14:08:24;2.58;;;1.75;;
44606;SDS011;30315;46.072;14.474;2023-03-08T14:10:54;2.50;;;1.73;;
44606;SDS011;30315;46.072;14.474;2023-03-08T14:16:37;2.30;;;1.80;;
44606;SDS011;30315;46.072;14.474;2023-03-08T14:18:52;2.80;;;1.52;;
44606;SDS011;30315;46.072;14.474;2023-03-08T14:21:24;4.60;;;2.10;;
44606;SDS011;30315;46.072;14.474;2023-03-08T14:24:00;2.67;;;2.05;;
44606;SDS011;30315;46.072;14.474;2023-03-08T14:31:36;3.42;;;1.90;;
44606;SDS011;30315;46.072;14.474;2023-03-08T14:39:38;1.77;;;1.67;;
44606;SDS011;30315;46.072;14.474;2023-03-08T14:42:08;1.85;;;1.60;;
44606;SDS011;30315;46.072;14.474;2023-03-08T14:44:35;3.50;;;1.80;;
44606;SDS011;30315;46.072;14.474;2023-03-08T14:47:06;3.17;;;1.75;;
44606;SDS011;30315;46.072;14.474;2023-03-08T14:49:34;1.98;;;1.83;;
44606;SDS011;30315;46.072;14.474;2023-03-08T14:52:01;2.22;;;1.90;;
44606;SDS011;30315;46.072;14.474;2023-03-08T14:54:32;3.67;;;2.70;;
44606;SDS011;30315;46.072;14.474;2023-03-08T14:57:23;3.60;;;3.30;;
44606;SDS011;30315;46.072;14.474;2023-03-08T14:59:50;2.30;;;2.08;;
44606;SDS011;30315;46.072;14.474;2023-03-08T15:02:19;1.77;;;1.67;;
44606;SDS011;30315;46.072;14.474;2023-03-08T15:04:46;4.15;;;1.98;;
44606;SDS011;30315;46.072;14.474;2023-03-08T15:07:17;1.95;;;1.85;;
44606;SDS011;30315;46.072;14.474;2023-03-08T15:09:49;2.45;;;1.95;;
44606;SDS011;30315;46.072;14.474;2023-03-08T15:12:17;2.10;;;2.00;;
44606;SDS011;30315;46.072;14.474;2023-03-08T15:14:44;2.00;;;1.83;;
44606;SDS011;30315;46.072;14.474;2023-03-08T15:17:11;1.80;;;1.70;;
44606;SDS011;30315;46.072;14.474;2023-03-08T15:19:38;2.42;;;1.55;;
44606;SDS011;30315;46.072;14.474;2023-03-08T15:22:05;4.88;;;1.90;;
44606;SDS011;30315;46.072;14.474;2023-03-08T15:24:32;1.60;;;1.50;;
44606;SDS011;30315;46.072;14.474;2023-03-08T15:26:59;3.38;;;1.95;;
44606;SDS011;30315;46.072;14.474;2023-03-08T15:29:30;3.22;;;1.63;;
44606;SDS011;30315;46.072;14.474;2023-03-08T15:31:59;1.85;;;1.63;;
44606;SDS011;30315;46.072;14.474;2023-03-08T15:34:26;1.67;;;1.58;;
44606;SDS011;30315;46.072;14.474;2023-03-08T15:36:54;2.28;;;1.63;;
44606;SDS011;30315;46.072;14.474;2023-03-08T15:39:21;1.40;;;1.30;;
44606;SDS011;30315;46.072;14.474;2023-03-08T15:41:48;1.90;;;1.58;;
44606;SDS011;30315;46.072;14.474;2023-03-08T15:44:15;4.32;;;1.70;;
44606;SDS011;30315;46.072;14.474;2023-03-08T15:46:42;3.88;;;1.40;;
44606;SDS011;30315;46.072;14.474;2023-03-08T15:49:09;2.45;;;1.80;;
44606;SDS011;30315;46.072;14.474;2023-03-08T15:51:36;1.95;;;1.70;;
44606;SDS011;30315;46.072;14.474;2023-03-08T15:54:03;1.85;;;1.75;;
44606;SDS011;30315;46.072;14.474;2023-03-08T15:56:31;4.00;;;1.90;;
44606;SDS011;30315;46.072;14.474;2023-03-08T15:58:58;4.85;;;2.22;;
44606;SDS011;30315;46.072;14.474;2023-03-08T16:01:26;2.10;;;1.90;;
44606;SDS011;30315;46.072;14.474;2023-03-08T16:03:57;2.75;;;2.13;;
44606;SDS011;30315;46.072;14.474;2023-03-08T16:06:27;2.55;;;2.03;;
44606;SDS011;30315;46.072;14.474;2023-03-08T16:09:00;2.83;;;1.90;;
44606;SDS011;30315;46.072;14.474;2023-03-08T16:11:33;2.22;;;2.00;;
44606;SDS011;30315;46.072;14.474;2023-03-08T16:14:00;1.98;;;1.83;;
44606;SDS011;30315;46.072;14.474;2023-03-08T16:16:27;2.67;;;1.80;;
44606;SDS011;30315;46.072;14.474;2023-03-08T16:19:09;2.22;;;2.13;;
44606;SDS011;30315;46.072;14.474;2023-03-08T16:21:37;2.20;;;2.00;;
44606;SDS011;30315;46.072;14.474;2023-03-08T16:24:04;2.72;;;2.10;;
44606;SDS011;30315;46.072;14.474;2023-03-08T16:26:31;4.57;;;3.00;;
44606;SDS011;30315;46.072;14.474;2023-03-08T16:28:58;5.25;;;2.65;;
44606;SDS011;30315;46.072;14.474;2023-03-08T16:31:25;2.38;;;2.13;;
44606;SDS011;30315;46.072;14.474;2023-03-08T16:33:52;2.75;;;2.10;;